Brighton, Oregon
Current Conditions -  °F | °C
As of 5:35 AM on Saturday 20 Dec 2014 (Local Time) from KTMK Reporting Station
Moderate Rain Moderate Rain  
Wind Chill: 50°   Ceiling: 1100
Heat Index: 50°   Visibility: 1.5mi
Dew Point: 50°   Wind: 3mph
Humidity: 100%   Direction: 100°E
Pressure: 29.68"   Gusts: NA
Location:  45.6132°N, 123.654°W
Report Text: KTMK 201335Z AUTO 10003KT 1 1/2SM RA OVC011 10/10 A2968 RMK AO2 P0020
Loading
Personal Weather Stations






























Interactive Weather Map New forecast layout! Learn more

10-Day Weather Forecast

Advertisements
Track Severe Weather on mobile